Time;durP1;ratioP1;P1;durP2;ratioP2;P2;SDS_P1;SDS_P2;PMS_P1;PMS_P2;Temp;Humidity;BMP_temperature;BMP_pressure;BME280_temperature;BME280_humidity;BME280_pressure;Samples;Min_cycle;Max_cycle;Signal;HPM_P1;HPM_P2
2022/09/06 00:01:22;;;;;;;5.78;4.22;;;;;;;21.68;65.38;101494.53;4990333;28;20036;-55
2022/09/06 00:03:48;;;;;;;5.93;4.22;;;;;;;21.67;65.94;101499.84;4990416;28;20034;-55
2022/09/06 00:06:15;;;;;;;6.13;4.10;;;;;;;21.65;65.88;101506.94;4992632;28;20026;-55
2022/09/06 00:08:43;;;;;;;8.40;4.75;;;;;;;21.60;66.83;101522.91;4991752;28;20033;-55
2022/09/06 00:11:08;;;;;;;6.40;4.40;;;;;;;21.64;65.93;101569.72;4991501;28;20065;-55
2022/09/06 00:13:34;;;;;;;5.80;4.78;;;;;;;21.56;66.78;101587.47;4992757;28;20430;-55
2022/09/06 00:16:08;;;;;;;5.40;4.45;;;;;;;21.37;67.46;101595.56;4990694;28;20482;-55
2022/09/06 00:18:34;;;;;;;6.80;4.50;;;;;;;21.24;68.03;101599.22;4979369;28;20497;-55
2022/09/06 00:21:00;;;;;;;7.07;4.90;;;;;;;21.11;67.73;101619.66;4990519;28;20037;-55
2022/09/06 00:23:25;;;;;;;7.05;4.60;;;;;;;21.05;68.59;101621.50;4979337;28;20030;-54
2022/09/06 00:25:51;;;;;;;5.80;4.53;;;;;;;21.04;68.51;101619.72;4991648;28;20034;-55
2022/09/06 00:28:16;;;;;;;7.43;4.97;;;;;;;21.00;68.15;101633.00;4991886;28;20034;-54
2022/09/06 00:30:41;;;;;;;7.75;5.18;;;;;;;21.04;69.40;101638.28;4990275;28;20019;-53
2022/09/06 00:33:06;;;;;;;8.63;5.63;;;;;;;21.00;69.17;101643.59;4992323;28;20512;-54
2022/09/06 00:35:32;;;;;;;8.52;5.40;;;;;;;21.06;68.56;101624.13;4990711;28;20081;-53
2022/09/06 00:37:59;;;;;;;8.15;5.32;;;;;;;21.10;69.12;101627.63;4991129;28;20038;-54
2022/09/06 00:40:25;;;;;;;6.57;5.32;;;;;;;21.08;68.83;101632.94;4989928;28;20028;-53
2022/09/06 00:42:50;;;;;;;7.75;5.30;;;;;;;21.09;68.66;101620.59;4990994;28;20065;-54
2022/09/06 00:45:16;;;;;;;7.78;5.47;;;;;;;21.08;69.79;101609.09;4991057;28;20073;-54
2022/09/06 00:47:42;;;;;;;8.07;5.57;;;;;;;21.07;69.60;101609.09;4991068;28;20034;-52
2022/09/06 00:50:10;;;;;;;7.20;5.60;;;;;;;21.10;68.37;101603.78;4989679;28;20045;-54
2022/09/06 00:52:36;;;;;;;8.65;5.90;;;;;;;21.07;70.49;101591.41;4991067;28;20690;-53
2022/09/06 00:55:03;;;;;;;7.40;5.45;;;;;;;21.09;70.14;101587.00;4990958;28;20057;-54
2022/09/06 00:57:30;;;;;;;8.02;5.90;;;;;;;21.11;68.73;101584.34;4991819;28;20018;-55
2022/09/06 00:59:57;;;;;;;7.57;5.70;;;;;;;21.04;70.12;101582.63;4988582;28;20536;-54
2022/09/06 01:02:22;;;;;;;7.50;6.30;;;;;;;21.05;69.56;101577.31;4991132;28;20046;-55
2022/09/06 01:04:50;;;;;;;7.22;5.80;;;;;;;21.05;69.60;101579.97;4991038;28;20037;-54
2022/09/06 01:07:45;;;;;;;10.18;6.30;;;;;;;21.09;69.01;101578.19;4991343;28;20482;-54
2022/09/06 01:10:10;;;;;;;8.98;6.05;;;;;;;21.08;69.35;101566.69;4989240;28;20030;-54
2022/09/06 01:13:10;;;;;;;8.03;6.60;;;;;;;21.07;68.58;101559.63;4990063;28;20136;-54
2022/09/06 01:15:56;;;;;;;9.00;6.53;;;;;;;21.04;69.54;101557.00;4989515;28;20281;-54
2022/09/06 01:18:27;;;;;;;7.60;6.13;;;;;;;21.05;69.93;101555.25;4991613;28;20034;-54
2022/09/06 01:21:22;;;;;;;8.35;7.03;;;;;;;21.02;70.02;101543.78;4988605;28;20057;-54
2022/09/06 01:23:56;;;;;;;8.23;7.25;;;;;;;20.99;70.30;101540.28;4989604;28;20033;-54
2022/09/06 01:26:50;;;;;;;9.63;7.10;;;;;;;20.98;69.88;101528.78;4991415;28;20023;-54
2022/09/06 01:29:27;;;;;;;7.65;6.85;;;;;;;20.98;69.57;101510.25;4990691;28;20038;-54
2022/09/06 01:32:03;;;;;;;9.50;7.85;;;;;;;20.95;69.51;101493.50;4989922;28;20371;-54
2022/09/06 01:34:47;;;;;;;10.38;7.90;;;;;;;20.81;69.32;101470.69;4978163;28;20052;-55
2022/09/06 01:37:18;;;;;;;9.10;7.53;;;;;;;20.67;72.02;101451.38;4985819;28;20125;-54
2022/09/06 01:39:44;;;;;;;11.70;8.10;;;;;;;20.67;71.07;101435.50;4990498;28;20049;-54
2022/09/06 01:42:30;;;;;;;8.70;7.80;;;;;;;20.64;70.06;101431.06;4989939;28;20062;-54
2022/09/06 01:45:01;;;;;;;10.35;7.82;;;;;;;20.57;71.05;101424.06;4988254;28;20065;-53
2022/09/06 01:47:38;;;;;;;11.23;7.68;;;;;;;20.49;71.42;101425.88;4990734;28;20084;-53
2022/09/06 01:50:25;;;;;;;11.30;8.13;;;;;;;20.44;71.90;101417.13;4989862;28;20038;-55
2022/09/06 01:53:02;;;;;;;10.20;7.60;;;;;;;20.47;71.65;101401.22;4988890;28;20030;-55
2022/09/06 01:55:45;;;;;;;10.10;8.15;;;;;;;20.45;71.91;101393.28;4988601;28;20415;-55
2022/09/06 01:58:34;;;;;;;10.35;7.60;;;;;;;20.38;71.38;101375.69;4989684;28;20550;-55
2022/09/06 02:01:09;;;;;;;10.25;8.20;;;;;;;20.36;71.99;101366.00;4976371;28;21985;-55
2022/09/06 02:03:53;;;;;;;11.05;8.50;;;;;;;20.38;71.81;101358.91;4986038;28;20034;-55
2022/09/06 02:06:28;;;;;;;10.48;8.05;;;;;;;20.35;72.23;101361.59;4982562;28;20061;-54
2022/09/06 02:09:01;;;;;;;13.02;8.35;;;;;;;20.36;72.56;101352.78;4990092;28;20034;-55
2022/09/06 02:11:32;;;;;;;9.73;7.65;;;;;;;20.37;71.92;101386.28;4989219;28;20026;-54
2022/09/06 02:14:03;;;;;;;11.65;8.65;;;;;;;20.33;72.08;101447.19;4989699;28;20034;-54
2022/09/06 02:16:33;;;;;;;12.52;9.52;;;;;;;20.19;73.45;101411.13;4985000;28;20077;-54
2022/09/06 02:19:13;;;;;;;11.15;8.40;;;;;;;20.13;73.37;101390.88;4989908;28;20121;-55
2022/09/06 02:21:42;;;;;;;12.32;9.35;;;;;;;20.08;73.88;101403.28;4989348;28;20022;-56
2022/09/06 02:24:14;;;;;;;11.32;8.90;;;;;;;20.11;73.62;101416.47;4988884;28;20045;-54
2022/09/06 02:26:42;;;;;;;11.85;9.43;;;;;;;20.14;72.82;101414.66;4992984;28;20026;-54
2022/09/06 02:29:08;;;;;;;12.10;9.10;;;;;;;20.15;73.58;101413.78;4993532;28;20525;-54
2022/09/06 02:31:41;;;;;;;13.65;9.48;;;;;;;20.15;73.65;101415.56;4992999;28;20065;-54
2022/09/06 02:34:09;;;;;;;12.52;9.38;;;;;;;20.22;72.57;101417.28;4992974;28;20038;-54
2022/09/06 02:36:35;;;;;;;13.00;9.10;;;;;;;20.16;73.37;101409.41;4994206;28;20037;-55
2022/09/06 02:39:01;;;;;;;14.00;9.55;;;;;;;20.20;72.93;101408.47;4993810;28;20481;-54
2022/09/06 02:41:28;;;;;;;11.32;9.07;;;;;;;20.21;71.71;101402.28;4993248;28;20105;-54
2022/09/06 02:43:53;;;;;;;13.52;9.85;;;;;;;20.22;72.37;101405.78;4993529;28;20057;-54
2022/09/06 02:46:18;;;;;;;13.65;9.57;;;;;;;20.22;71.91;101398.75;4992996;28;20039;-54
2022/09/06 02:48:44;;;;;;;14.98;9.68;;;;;;;20.21;71.44;101404.06;4993474;28;20033;-54
2022/09/06 02:51:09;;;;;;;15.30;10.75;;;;;;;20.20;71.67;101403.16;4992916;28;20482;-54
2022/09/06 02:53:36;;;;;;;13.55;10.50;;;;;;;20.18;71.83;101406.75;4993387;28;20026;-54
2022/09/06 02:56:01;;;;;;;14.60;10.32;;;;;;;20.13;72.36;101404.09;4993369;28;20508;-54
2022/09/06 02:58:27;;;;;;;14.68;10.32;;;;;;;20.14;71.63;101403.22;4993840;28;20023;-54
2022/09/06 03:00:52;;;;;;;14.32;10.77;;;;;;;20.10;72.37;101402.38;4992171;28;20517;-55
2022/09/06 03:03:19;;;;;;;16.88;11.38;;;;;;;20.10;72.01;101406.78;4992373;28;20038;-55
2022/09/06 03:05:47;;;;;;;14.75;10.57;;;;;;;20.10;71.79;101412.06;4991771;28;20022;-55
2022/09/06 03:08:12;;;;;;;14.90;11.57;;;;;;;20.02;72.77;101406.84;4993260;28;20041;-55
2022/09/06 03:10:37;;;;;;;16.60;11.68;;;;;;;19.96;72.99;101407.75;4992804;28;20031;-55
2022/09/06 03:13:03;;;;;;;15.05;11.73;;;;;;;19.95;72.55;101407.75;4992402;28;20126;-55
2022/09/06 03:15:28;;;;;;;16.27;11.45;;;;;;;19.96;71.74;101404.25;4992440;28;20025;-55
2022/09/06 03:17:58;;;;;;;16.88;11.55;;;;;;;19.88;72.34;101404.25;4992816;28;20032;-55
2022/09/06 03:20:24;;;;;;;16.48;11.30;;;;;;;19.91;72.28;101404.25;4992571;28;20429;-55
2022/09/06 03:22:49;;;;;;;17.00;11.02;;;;;;;19.91;72.75;101406.03;4992575;28;20037;-55
2022/09/06 03:25:14;;;;;;;18.58;12.45;;;;;;;19.89;72.45;101403.38;4992587;28;20103;-55
2022/09/06 03:27:40;;;;;;;17.10;12.00;;;;;;;19.89;72.13;101399.88;4992561;28;20534;-55
2022/09/06 03:30:05;;;;;;;18.67;12.20;;;;;;;19.88;71.83;101404.25;4992625;28;20380;-52
2022/09/06 03:32:31;;;;;;;16.60;12.40;;;;;;;19.87;72.07;101405.16;4989816;28;20034;-54
2022/09/06 03:34:56;;;;;;;18.23;12.57;;;;;;;19.84;71.69;101402.53;4992406;28;20038;-54
2022/09/06 03:37:22;;;;;;;18.85;12.32;;;;;;;19.79;72.02;101406.97;4990911;28;20036;-54
2022/09/06 03:39:47;;;;;;;18.77;12.02;;;;;;;19.75;71.80;101400.78;4992322;28;20521;-54
2022/09/06 03:42:12;;;;;;;16.58;11.95;;;;;;;19.75;71.28;101399.91;4990587;28;20051;-54
2022/09/06 03:44:37;;;;;;;16.52;13.18;;;;;;;19.71;71.88;101396.41;4992316;28;20030;-54
2022/09/06 03:47:03;;;;;;;17.65;12.48;;;;;;;19.67;72.35;101392.03;4992570;28;20117;-55
2022/09/06 03:49:28;;;;;;;16.85;11.65;;;;;;;19.64;72.16;101395.56;4990259;28;20041;-55
2022/09/06 03:51:54;;;;;;;17.30;12.60;;;;;;;19.62;71.91;101407.91;4991314;28;20026;-55
2022/09/06 03:54:19;;;;;;;17.50;12.70;;;;;;;19.61;71.56;101408.78;4990819;28;20033;-54
2022/09/06 03:56:44;;;;;;;18.77;12.75;;;;;;;19.58;71.76;101414.09;4991841;28;20030;-55
2022/09/06 03:59:09;;;;;;;16.77;12.80;;;;;;;19.52;72.01;101413.25;4991364;28;20231;-55
2022/09/06 04:01:35;;;;;;;20.13;13.60;;;;;;;19.47;71.80;101415.91;4991700;28;20019;-55
2022/09/06 04:04:00;;;;;;;21.98;13.32;;;;;;;19.48;71.76;101412.38;4992150;28;20046;-55
2022/09/06 04:06:27;;;;;;;18.65;12.07;;;;;;;19.45;71.84;101415.91;4990759;28;20033;-53
2022/09/06 04:08:53;;;;;;;19.15;12.45;;;;;;;19.41;72.24;101419.44;4990852;28;20061;-54
2022/09/06 04:11:18;;;;;;;20.42;12.48;;;;;;;19.39;72.02;101413.31;4991763;28;20030;-55
2022/09/06 04:13:44;;;;;;;25.75;13.73;;;;;;;19.39;71.79;101413.31;4991757;28;20033;-54
2022/09/06 04:16:09;;;;;;;19.20;13.05;;;;;;;19.34;71.76;101422.13;4990897;28;20401;-55
2022/09/06 04:18:35;;;;;;;20.65;13.30;;;;;;;19.31;72.51;101427.44;4992493;28;20023;-54
2022/09/06 04:21:00;;;;;;;19.88;12.57;;;;;;;19.29;71.90;101424.75;4990613;28;20068;-53
2022/09/06 04:23:27;;;;;;;17.08;11.85;;;;;;;19.25;72.04;101438.91;4991310;28;20030;-55
2022/09/06 04:25:55;;;;;;;16.10;11.93;;;;;;;19.23;71.78;101438.91;4990371;28;20034;-55
2022/09/06 04:28:21;;;;;;;19.75;12.38;;;;;;;19.25;71.21;101436.25;4990673;28;20031;-55
2022/09/06 04:30:55;;;;;;;19.23;13.18;;;;;;;19.22;71.17;101438.88;4991587;28;20026;-55
2022/09/06 04:33:24;;;;;;;18.58;12.13;;;;;;;19.18;71.70;101435.38;4991223;28;20033;-54
2022/09/06 04:35:54;;;;;;;18.67;12.35;;;;;;;19.16;71.76;101441.53;4990554;28;20038;-55
2022/09/06 04:38:19;;;;;;;20.33;12.80;;;;;;;19.14;71.74;101438.91;4991254;28;20030;-54
2022/09/06 04:40:45;;;;;;;21.50;13.55;;;;;;;19.05;72.18;101433.66;4991120;28;20395;-55
2022/09/06 04:43:10;;;;;;;21.67;13.75;;;;;;;19.08;71.59;101434.50;4989537;28;20046;-55
2022/09/06 04:45:35;;;;;;;20.60;13.77;;;;;;;19.05;71.70;101433.66;4990728;28;20045;-55
2022/09/06 04:48:01;;;;;;;21.83;13.82;;;;;;;19.03;71.83;101438.03;4990963;28;20105;-55
2022/09/06 04:50:26;;;;;;;20.50;14.45;;;;;;;19.02;72.07;101434.53;4989587;28;20489;-55
2022/09/06 04:52:51;;;;;;;23.58;13.63;;;;;;;19.01;72.02;101439.81;4990084;28;20022;-54
2022/09/06 04:55:17;;;;;;;24.27;13.90;;;;;;;18.99;72.22;101441.56;4990862;28;20092;-55
2022/09/06 04:57:42;;;;;;;21.08;13.98;;;;;;;18.95;71.82;101435.44;4989740;28;20408;-55
2022/09/06 05:00:08;;;;;;;22.58;13.82;;;;;;;18.93;72.65;101443.34;4990659;28;20085;-55
2022/09/06 05:02:33;;;;;;;27.00;14.60;;;;;;;18.93;72.30;101440.72;4988001;28;20069;-54
2022/09/06 05:04:59;;;;;;;24.77;15.10;;;;;;;18.90;72.85;101435.44;4990987;28;20030;-55
2022/09/06 05:07:24;;;;;;;21.63;15.25;;;;;;;18.88;72.17;101431.91;4990189;28;20034;-55
2022/09/06 05:09:50;;;;;;;24.08;14.77;;;;;;;18.86;72.27;101433.69;4990705;28;20028;-55
2022/09/06 05:12:15;;;;;;;24.67;15.15;;;;;;;18.85;72.37;101441.56;4989490;28;20442;-55
2022/09/06 05:14:40;;;;;;;23.70;14.75;;;;;;;18.82;72.55;101426.59;4990407;28;20022;-55
2022/09/06 05:17:05;;;;;;;21.67;13.88;;;;;;;18.81;73.28;101432.75;4990315;28;20257;-55
2022/09/06 05:19:31;;;;;;;21.35;13.00;;;;;;;18.79;72.61;101437.19;4990437;28;20109;-55
2022/09/06 05:21:56;;;;;;;23.15;14.27;;;;;;;18.76;72.77;101434.53;4990274;28;20018;-55
2022/09/06 05:24:21;;;;;;;21.35;13.85;;;;;;;18.74;73.22;101439.81;4989387;28;20029;-54
2022/09/06 05:26:47;;;;;;;26.60;14.32;;;;;;;18.74;72.68;101439.81;4990033;28;20077;-55
2022/09/06 05:29:12;;;;;;;20.50;13.90;;;;;;;18.70;73.59;101443.34;4990966;28;20034;-55
2022/09/06 05:31:37;;;;;;;19.23;13.30;;;;;;;18.68;73.50;101438.94;4990253;28;20014;-55
2022/09/06 05:34:02;;;;;;;23.02;14.27;;;;;;;18.64;73.26;101440.72;4990292;28;20038;-54
2022/09/06 05:36:29;;;;;;;24.05;14.65;;;;;;;18.59;73.84;101443.34;4989370;28;20023;-55
2022/09/06 05:38:55;;;;;;;20.48;13.75;;;;;;;18.62;72.96;101455.66;4989105;28;20049;-54
2022/09/06 05:41:21;;;;;;;21.35;14.80;;;;;;;18.62;73.10;101447.75;4988789;28;20022;-54
2022/09/06 05:43:47;;;;;;;22.55;14.43;;;;;;;18.62;72.98;101449.50;4991060;28;20054;-54
2022/09/06 05:46:13;;;;;;;20.90;14.63;;;;;;;18.63;72.82;101446.00;4989886;28;20034;-55
2022/09/06 05:48:38;;;;;;;22.70;15.23;;;;;;;18.58;73.38;101443.34;4988228;28;20027;-54
2022/09/06 05:51:06;;;;;;;25.42;14.80;;;;;;;18.59;73.60;101445.97;4989972;28;20034;-54
2022/09/06 05:53:35;;;;;;;26.08;16.00;;;;;;;18.55;74.28;101444.25;4990927;28;20026;-55
2022/09/06 05:56:01;;;;;;;26.55;17.20;;;;;;;18.54;74.23;101446.88;4988825;28;20112;-55
2022/09/06 05:58:26;;;;;;;25.17;16.23;;;;;;;18.56;74.18;101448.63;4990112;28;20597;-54
2022/09/06 06:00:52;;;;;;;23.58;15.82;;;;;;;18.57;74.22;101444.25;4989093;28;20065;-55
2022/09/06 06:03:18;;;;;;;24.08;16.45;;;;;;;18.54;74.21;101450.38;4987684;28;20034;-55
2022/09/06 06:05:46;;;;;;;28.10;17.63;;;;;;;18.52;75.13;101441.56;4989017;28;20472;-55
2022/09/06 06:08:11;;;;;;;24.02;16.50;;;;;;;18.54;74.41;101449.53;4990061;28;20065;-54
2022/09/06 06:10:38;;;;;;;27.90;17.25;;;;;;;18.52;75.25;101446.84;4981141;28;20165;-54
2022/09/06 06:13:03;;;;;;;24.20;17.35;;;;;;;18.49;76.28;101453.91;4988412;28;20018;-55
2022/09/06 06:15:29;;;;;;;28.60;17.20;;;;;;;18.53;75.26;101450.38;4990159;28;20041;-54
2022/09/06 06:17:54;;;;;;;26.55;16.90;;;;;;;18.55;75.82;101456.53;4988737;28;20038;-55
2022/09/06 06:20:19;;;;;;;24.98;16.67;;;;;;;18.54;75.17;101445.09;4988860;28;20026;-55
2022/09/06 06:22:44;;;;;;;26.10;17.33;;;;;;;18.56;76.17;101445.97;4990576;28;20481;-54
2022/09/06 06:25:10;;;;;;;28.05;17.77;;;;;;;18.54;76.54;101447.75;4989898;28;20030;-55
2022/09/06 06:27:36;;;;;;;30.55;19.45;;;;;;;18.52;77.47;101448.63;4989424;28;20465;-55
2022/09/06 06:30:02;;;;;;;28.13;20.13;;;;;;;18.54;77.19;101445.09;4989500;28;20405;-55
2022/09/06 06:32:27;;;;;;;26.00;18.08;;;;;;;18.59;75.82;101439.81;4988419;28;20030;-55
2022/09/06 06:34:53;;;;;;;30.30;19.27;;;;;;;18.58;77.64;101438.06;4990256;28;20060;-54
2022/09/06 06:37:18;;;;;;;29.98;19.23;;;;;;;18.59;77.32;101434.53;4988108;28;20596;-55
2022/09/06 06:39:43;;;;;;;29.63;18.40;;;;;;;18.64;76.48;101429.25;4989564;28;20085;-55
2022/09/06 06:42:09;;;;;;;30.33;18.85;;;;;;;18.65;76.71;101433.66;4989425;28;20504;-54
2022/09/06 06:44:34;;;;;;;29.00;19.60;;;;;;;18.65;78.02;101431.91;4989707;28;20036;-54
2022/09/06 06:47:01;;;;;;;37.65;19.30;;;;;;;18.68;78.27;101428.38;4988388;28;20062;-54
2022/09/06 06:49:27;;;;;;;30.13;19.05;;;;;;;18.70;77.83;101431.91;4989361;28;20041;-54
2022/09/06 06:51:52;;;;;;;28.90;18.58;;;;;;;18.71;78.76;101428.38;4989391;28;20022;-55
2022/09/06 06:54:18;;;;;;;32.80;19.17;;;;;;;18.72;78.97;101431.00;4990349;28;20046;-54
2022/09/06 06:56:44;;;;;;;31.35;18.42;;;;;;;18.73;78.37;101435.41;4989440;28;20034;-55
2022/09/06 06:59:09;;;;;;;28.23;18.17;;;;;;;18.77;78.59;101441.59;4989185;28;20176;-55
2022/09/06 07:01:35;;;;;;;27.58;17.73;;;;;;;18.81;78.63;101440.69;4988599;28;20528;-55
2022/09/06 07:04:01;;;;;;;30.92;18.65;;;;;;;18.81;78.84;101440.69;4988235;28;20053;-55
2022/09/06 07:06:27;;;;;;;31.40;18.77;;;;;;;18.85;77.21;101434.53;4989642;28;20041;-54
2022/09/06 07:08:56;;;;;;;29.25;18.38;;;;;;;18.87;79.40;101435.44;4988311;28;20037;-55
2022/09/06 07:11:21;;;;;;;33.58;18.63;;;;;;;18.89;80.03;101428.41;4989920;28;20034;-55
2022/09/06 07:13:46;;;;;;;31.88;17.58;;;;;;;18.94;78.82;101433.66;4992655;28;20034;-55
2022/09/06 07:16:20;;;;;;;33.28;18.95;;;;;;;18.97;80.17;101427.50;4992709;28;20045;-55
2022/09/06 07:18:46;;;;;;;31.58;18.40;;;;;;;19.00;79.64;101427.50;4992288;28;20057;-55
2022/09/06 07:21:14;;;;;;;32.65;17.67;;;;;;;19.03;79.70;101425.75;4991391;28;20026;-55
2022/09/06 07:23:40;;;;;;;34.58;18.95;;;;;;;19.07;79.55;101426.59;4992593;28;20037;-55
2022/09/06 07:26:06;;;;;;;29.83;17.52;;;;;;;19.11;78.91;101434.50;4990329;28;20030;-55
2022/09/06 07:28:31;;;;;;;33.22;17.25;;;;;;;19.16;79.97;101437.16;4991359;28;20033;-55
2022/09/06 07:30:57;;;;;;;31.55;18.15;;;;;;;19.18;79.71;101438.03;4992442;28;20489;-55
2022/09/06 07:33:24;;;;;;;29.75;17.92;;;;;;;19.22;79.85;101437.13;4991986;28;20030;-55
2022/09/06 07:36:00;;;;;;;33.28;17.52;;;;;;;19.25;78.87;101434.47;4991650;28;20018;-55
2022/09/06 07:38:27;;;;;;;29.90;17.23;;;;;;;19.30;79.15;101426.53;4990569;28;20014;-55
2022/09/06 07:41:00;;;;;;;31.60;16.25;;;;;;;19.33;78.62;101431.81;4991635;28;20087;-55
2022/09/06 07:43:27;;;;;;;29.00;17.17;;;;;;;19.38;79.07;101437.97;4990322;28;20054;-54
2022/09/06 07:46:06;;;;;;;35.88;18.25;;;;;;;19.41;78.77;101437.94;4992457;28;20026;-54
2022/09/06 07:48:33;;;;;;;33.58;17.77;;;;;;;19.46;78.92;101427.34;4992061;28;20049;-54
2022/09/06 07:51:15;;;;;;;35.42;17.27;;;;;;;19.52;78.71;101435.25;4986544;28;20042;-54
2022/09/06 07:53:41;;;;;;;33.92;17.27;;;;;;;19.57;80.12;101432.63;4991931;28;20037;-54
2022/09/06 07:56:09;;;;;;;32.28;17.60;;;;;;;19.62;78.31;101429.06;4991899;28;20088;-54
2022/09/06 07:58:34;;;;;;;32.17;17.58;;;;;;;19.67;78.29;101422.84;4992465;28;20042;-54
2022/09/06 08:01:34;;;;;;;30.58;16.42;;;;;;;19.72;78.13;101410.50;4992136;28;20018;-54
2022/09/06 08:04:01;;;;;;;33.90;16.55;;;;;;;19.79;79.87;101413.13;4990578;28;20064;-55
2022/09/06 08:06:29;;;;;;;30.30;15.70;;;;;;;19.84;79.27;101409.59;4989979;28;20022;-55
2022/09/06 08:08:55;;;;;;;31.80;16.27;;;;;;;19.89;80.03;101419.25;4990279;28;20115;-55
2022/09/06 08:11:21;;;;;;;24.60;13.65;;;;;;;19.93;76.53;101417.47;4991417;28;20022;-54
2022/09/06 08:13:54;;;;;;;25.27;14.82;;;;;;;20.00;80.03;101410.38;4989850;28;20029;-54
2022/09/06 08:16:21;;;;;;;30.95;14.40;;;;;;;20.06;79.09;101415.59;4991347;28;20026;-54
2022/09/06 08:18:51;;;;;;;26.73;13.02;;;;;;;20.11;77.01;101419.13;4992211;28;20022;-55
2022/09/06 08:21:16;;;;;;;20.25;11.98;;;;;;;20.21;76.47;101415.53;4990866;28;20034;-54
2022/09/06 08:23:50;;;;;;;20.58;11.90;;;;;;;20.26;75.92;101419.03;4991571;28;20038;-54
2022/09/06 08:26:17;;;;;;;17.95;9.70;;;;;;;20.31;73.75;101417.19;4990899;28;20050;-54
2022/09/06 08:28:43;;;;;;;15.52;8.70;;;;;;;20.38;73.17;101411.84;4992323;28;20497;-54
2022/09/06 08:31:11;;;;;;;13.02;7.78;;;;;;;20.46;72.85;101417.97;4990443;28;20033;-54
2022/09/06 08:33:37;;;;;;;14.05;7.85;;;;;;;20.52;73.18;101417.03;4991601;28;20040;-54
2022/09/06 08:36:03;;;;;;;15.88;8.55;;;;;;;20.56;71.97;101426.72;4989624;28;20073;-55
2022/09/06 08:38:29;;;;;;;13.20;7.50;;;;;;;20.61;72.03;101424.91;4990938;28;20174;-54
2022/09/06 08:41:09;;;;;;;13.45;7.40;;;;;;;20.66;71.75;101429.28;4991265;28;20121;-64
2022/09/06 08:43:35;;;;;;;13.30;7.35;;;;;;;20.76;72.56;101418.63;4990738;28;20050;-54
2022/09/06 08:46:01;;;;;;;10.32;7.03;;;;;;;20.80;70.72;101415.94;4989828;28;20077;-54
2022/09/06 08:48:32;;;;;;;12.32;7.32;;;;;;;20.87;71.38;101413.22;4991936;28;20030;-53
2022/09/06 08:51:30;;;;;;;11.75;6.68;;;;;;;20.97;70.61;101415.78;4989903;28;20100;-50
2022/09/06 08:54:04;;;;;;;12.20;6.68;;;;;;;21.02;70.00;101419.22;4991401;28;20527;-52
2022/09/06 08:56:51;;;;;;;12.48;6.55;;;;;;;21.16;70.21;101408.50;4986299;28;20027;-53
2022/09/06 08:59:18;;;;;;;10.95;6.80;;;;;;;21.26;69.15;101409.28;4982090;28;20034;-53
2022/09/06 09:01:57;;;;;;;11.35;6.65;;;;;;;21.33;69.61;101405.66;4998244;28;20050;-52
2022/09/06 09:04:25;;;;;;;;;;;;;;;21.45;69.43;101417.88;4989611;28;20026;-54
2022/09/06 09:06:56;;;;;;;9.32;6.50;;;;;;;21.55;68.45;101410.69;4985103;28;19924;-53
2022/09/06 09:09:22;;;;;;;10.30;6.13;;;;;;;21.68;69.11;101408.75;4985146;28;20030;-54
2022/09/06 09:11:50;;;;;;;11.57;6.25;;;;;;;21.83;68.04;101410.34;4985195;28;20397;-54
2022/09/06 09:14:26;;;;;;;11.40;5.63;;;;;;;21.92;67.85;101409.31;4990616;28;20038;-54
2022/09/06 09:16:53;;;;;;;11.27;6.20;;;;;;;22.03;67.15;101408.25;4986710;28;20600;-54
2022/09/06 09:19:19;;;;;;;12.00;5.88;;;;;;;22.14;66.51;101396.59;4995826;28;20038;-53
2022/09/06 09:21:44;;;;;;;12.10;6.60;;;;;;;22.22;66.52;101397.38;4990562;28;20089;-54
2022/09/06 09:24:12;;;;;;;9.95;6.22;;;;;;;22.31;66.77;101389.25;4986873;28;20068;-54
2022/09/06 09:26:56;;;;;;;10.77;6.47;;;;;;;22.43;66.30;101387.31;4986729;28;20560;-54
2022/09/06 09:29:21;;;;;;;8.30;5.63;;;;;;;22.52;65.33;101398.66;4990131;28;20116;-53
2022/09/06 09:31:50;;;;;;;11.45;6.47;;;;;;;22.60;64.41;101400.31;4987110;28;21620;-53
2022/09/06 09:34:36;;;;;;;9.85;6.07;;;;;;;22.72;65.48;101405.38;4987999;28;20030;-53
2022/09/06 09:37:22;;;;;;;9.25;5.65;;;;;;;22.86;65.21;101406.00;4980410;28;20406;-54
2022/09/06 09:39:51;;;;;;;9.52;5.93;;;;;;;22.90;64.06;101407.72;4985160;28;20027;-54
2022/09/06 09:42:36;;;;;;;9.52;6.15;;;;;;;23.00;63.79;101407.53;4983065;28;20053;-54
2022/09/06 09:45:19;;;;;;;10.05;6.47;;;;;;;23.11;64.73;101405.56;4981526;28;20113;-54
2022/09/06 09:47:45;;;;;;;9.10;6.10;;;;;;;23.15;63.42;101396.63;4977459;28;20038;-54
2022/09/06 09:50:26;;;;;;;9.82;5.72;;;;;;;23.22;63.89;101403.59;4990064;28;20034;-54
2022/09/06 09:52:51;;;;;;;10.25;6.25;;;;;;;23.26;62.39;101407.06;4980227;28;20022;-54
2022/09/06 09:55:22;;;;;;;10.98;7.07;;;;;;;23.32;62.72;101400.72;4990169;28;20165;-54
2022/09/06 09:57:49;;;;;;;9.85;6.63;;;;;;;23.40;61.98;101402.31;4980927;28;20022;-54
2022/09/06 10:00:40;;;;;;;9.10;6.63;;;;;;;23.51;63.29;101393.25;4985582;28;20409;-53
2022/09/06 10:03:26;;;;;;;9.43;6.00;;;;;;;23.64;63.33;101385.84;4984971;28;20041;-55
2022/09/06 10:06:01;;;;;;;10.25;6.25;;;;;;;23.75;63.04;101387.41;4989973;28;20030;-54
2022/09/06 10:08:31;;;;;;;9.02;5.68;;;;;;;23.83;62.34;101389.88;4989708;28;20116;-54
2022/09/06 10:10:57;;;;;;;11.25;6.03;;;;;;;23.95;61.01;101396.72;4984859;28;20065;-55
2022/09/06 10:13:29;;;;;;;9.65;6.25;;;;;;;24.03;61.11;101402.75;4981210;28;20478;-53
2022/09/06 10:15:57;;;;;;;8.38;5.35;;;;;;;24.13;61.60;101414.94;4980397;28;20077;-53
2022/09/06 10:18:31;;;;;;;11.02;5.95;;;;;;;24.24;59.68;101421.78;4978286;28;21058;-53
2022/09/06 10:21:01;;;;;;;12.40;6.72;;;;;;;24.36;60.52;101405.50;4982287;28;20058;-52
2022/09/06 10:24:01;;;;;;;11.30;6.43;;;;;;;24.46;60.78;101407.03;4975441;28;20022;-53
2022/09/06 10:26:42;;;;;;;11.23;7.13;;;;;;;24.55;60.14;101418.34;4983069;28;20030;-54
2022/09/06 10:29:11;;;;;;;10.98;6.70;;;;;;;24.62;59.19;101411.97;4985392;28;20121;-54
2022/09/06 10:32:14;;;;;;;9.50;6.47;;;;;;;24.74;60.67;101427.66;4987938;28;20029;-54
2022/09/06 10:35:04;;;;;;;8.75;6.75;;;;;;;24.87;61.11;101417.53;4988625;28;20022;-54
2022/09/06 10:37:48;;;;;;;10.30;7.32;;;;;;;24.91;59.17;101410.31;4991910;28;20018;-54
2022/09/06 10:40:31;;;;;;;12.25;6.97;;;;;;;25.01;58.83;101403.81;4986349;28;20034;-54
2022/09/06 10:42:59;;;;;;;16.67;8.20;;;;;;;25.05;57.58;101400.16;4988136;28;20061;-54
2022/09/06 10:45:57;;;;;;;12.93;7.28;;;;;;;25.11;58.20;101404.44;4990265;28;20026;-55
2022/09/06 10:48:28;;;;;;;11.07;7.55;;;;;;;25.26;58.73;101400.44;4990741;28;20494;-54
2022/09/06 10:51:06;;;;;;;11.90;7.38;;;;;;;25.32;58.57;101393.19;4993129;28;20038;-54
2022/09/06 10:53:57;;;;;;;13.27;7.30;;;;;;;25.45;58.95;101395.50;4992748;28;20026;-54
2022/09/06 10:56:43;;;;;;;12.68;7.20;;;;;;;25.52;58.49;101400.59;4993195;28;20041;-54
2022/09/06 10:59:20;;;;;;;11.30;7.40;;;;;;;25.58;58.52;101385.31;4994018;28;20058;-54
2022/09/06 11:02:27;;;;;;;12.77;7.90;;;;;;;25.68;57.98;101389.47;4990790;28;20445;-54
2022/09/06 11:04:59;;;;;;;11.02;7.20;;;;;;;25.71;56.95;101397.38;4969904;28;20117;-54
2022/09/06 11:07:30;;;;;;;14.75;8.15;;;;;;;25.73;56.30;101403.53;4993150;28;20095;-54
2022/09/06 11:10:13;;;;;;;12.02;8.23;;;;;;;25.77;55.47;101399.00;4993988;28;20057;-55
2022/09/06 11:12:57;;;;;;;11.20;7.57;;;;;;;25.83;56.56;101405.00;4989502;28;20109;-55
2022/09/06 11:15:24;;;;;;;13.60;7.97;;;;;;;25.87;54.68;101400.44;4991845;28;20039;-55
2022/09/06 11:18:01;;;;;;;14.55;9.25;;;;;;;25.89;54.75;101416.41;4992317;28;20109;-55
2022/09/06 11:20:38;;;;;;;17.08;10.68;;;;;;;25.87;55.19;101411.13;4992462;28;20038;-55
2022/09/06 11:23:22;;;;;;;13.55;9.23;;;;;;;25.94;54.64;101417.13;4992968;28;20515;-54
2022/09/06 11:26:03;;;;;;;13.27;9.15;;;;;;;25.99;56.18;101424.06;4992688;28;20037;-54
2022/09/06 11:28:54;;;;;;;14.63;10.00;;;;;;;26.08;55.66;101430.94;4982851;28;20486;-54